sensor_id;sensor_type;location;lat;lon;timestamp;temperature;humidity
30371;DHT22;17164;48.590;11.410;2023-05-18T00:02:00;5.30;99.90
30371;DHT22;17164;48.590;11.410;2023-05-18T00:04:26;5.30;99.90
30371;DHT22;17164;48.590;11.410;2023-05-18T00:06:53;5.20;99.90
30371;DHT22;17164;48.590;11.410;2023-05-18T00:09:24;5.30;99.90
30371;DHT22;17164;48.590;11.410;2023-05-18T00:11:53;5.20;99.90
30371;DHT22;17164;48.590;11.410;2023-05-18T00:14:19;5.20;99.90
30371;DHT22;17164;48.590;11.410;2023-05-18T00:16:45;5.20;99.90
30371;DHT22;17164;48.590;11.410;2023-05-18T00:19:12;5.20;99.90
30371;DHT22;17164;48.590;11.410;2023-05-18T00:21:42;5.20;99.90
30371;DHT22;17164;48.590;11.410;2023-05-18T00:24:09;5.20;99.90
30371;DHT22;17164;48.590;11.410;2023-05-18T00:26:38;5.20;99.90
30371;DHT22;17164;48.590;11.410;2023-05-18T00:29:05;5.20;99.90
30371;DHT22;17164;48.590;11.410;2023-05-18T00:31:31;5.10;99.90
30371;DHT22;17164;48.590;11.410;2023-05-18T00:34:08;5.10;99.90
30371;DHT22;17164;48.590;11.410;2023-05-18T00:36:34;5.10;99.90
30371;DHT22;17164;48.590;11.410;2023-05-18T00:39:01;5.00;99.90
30371;DHT22;17164;48.590;11.410;2023-05-18T00:41:28;5.00;99.90
30371;DHT22;17164;48.590;11.410;2023-05-18T00:43:54;5.00;99.90
30371;DHT22;17164;48.590;11.410;2023-05-18T00:46:24;4.90;99.90
30371;DHT22;17164;48.590;11.410;2023-05-18T00:48:51;4.90;99.90
30371;DHT22;17164;48.590;11.410;2023-05-18T00:51:17;4.90;99.90
30371;DHT22;17164;48.590;11.410;2023-05-18T00:53:44;4.80;99.90
30371;DHT22;17164;48.590;11.410;2023-05-18T00:56:11;4.80;99.90
30371;DHT22;17164;48.590;11.410;2023-05-18T00:58:38;4.80;99.90
30371;DHT22;17164;48.590;11.410;2023-05-18T01:01:04;4.80;99.90
30371;DHT22;17164;48.590;11.410;2023-05-18T01:03:32;4.80;99.90
30371;DHT22;17164;48.590;11.410;2023-05-18T01:05:57;4.80;99.90
30371;DHT22;17164;48.590;11.410;2023-05-18T01:08:24;4.80;99.90
30371;DHT22;17164;48.590;11.410;2023-05-18T01:10:57;4.80;99.90
30371;DHT22;17164;48.590;11.410;2023-05-18T01:16:19;4.70;99.90
30371;DHT22;17164;48.590;11.410;2023-05-18T01:19:05;4.70;99.90
30371;DHT22;17164;48.590;11.410;2023-05-18T01:24:40;4.70;99.90
30371;DHT22;17164;48.590;11.410;2023-05-18T01:27:07;4.70;99.90
30371;DHT22;17164;48.590;11.410;2023-05-18T01:29:34;4.70;99.90
30371;DHT22;17164;48.590;11.410;2023-05-18T01:32:00;4.60;99.90
30371;DHT22;17164;48.590;11.410;2023-05-18T01:34:26;4.50;99.90
30371;DHT22;17164;48.590;11.410;2023-05-18T01:36:52;4.50;99.90
30371;DHT22;17164;48.590;11.410;2023-05-18T01:39:18;4.50;99.90
30371;DHT22;17164;48.590;11.410;2023-05-18T01:42:14;4.50;99.90
30371;DHT22;17164;48.590;11.410;2023-05-18T01:44:52;4.50;99.90
30371;DHT22;17164;48.590;11.410;2023-05-18T01:47:18;4.50;99.90
30371;DHT22;17164;48.590;11.410;2023-05-18T01:50:00;4.50;99.90
30371;DHT22;17164;48.590;11.410;2023-05-18T01:52:41;4.50;99.90
30371;DHT22;17164;48.590;11.410;2023-05-18T01:55:09;4.50;99.90
30371;DHT22;17164;48.590;11.410;2023-05-18T01:57:38;4.40;99.90
30371;DHT22;17164;48.590;11.410;2023-05-18T02:00:06;4.40;99.90
30371;DHT22;17164;48.590;11.410;2023-05-18T02:02:33;4.40;99.90
30371;DHT22;17164;48.590;11.410;2023-05-18T02:04:58;4.40;99.90
30371;DHT22;17164;48.590;11.410;2023-05-18T02:07:24;4.40;99.90
30371;DHT22;17164;48.590;11.410;2023-05-18T02:09:50;4.40;99.90
30371;DHT22;17164;48.590;11.410;2023-05-18T02:12:15;4.40;99.90
30371;DHT22;17164;48.590;11.410;2023-05-18T02:14:41;4.40;99.90
30371;DHT22;17164;48.590;11.410;2023-05-18T02:17:06;4.30;99.90
30371;DHT22;17164;48.590;11.410;2023-05-18T02:19:32;4.30;99.90
30371;DHT22;17164;48.590;11.410;2023-05-18T02:22:05;4.30;99.90
30371;DHT22;17164;48.590;11.410;2023-05-18T02:24:34;4.30;99.90
30371;DHT22;17164;48.590;11.410;2023-05-18T02:27:00;4.30;99.90
30371;DHT22;17164;48.590;11.410;2023-05-18T02:29:26;4.20;99.90
30371;DHT22;17164;48.590;11.410;2023-05-18T02:31:52;4.20;99.90
30371;DHT22;17164;48.590;11.410;2023-05-18T02:34:17;4.20;99.90
30371;DHT22;17164;48.590;11.410;2023-05-18T02:36:44;4.20;99.90
30371;DHT22;17164;48.590;11.410;2023-05-18T02:39:10;4.20;99.90
30371;DHT22;17164;48.590;11.410;2023-05-18T02:41:37;4.20;99.90
30371;DHT22;17164;48.590;11.410;2023-05-18T02:44:03;4.20;99.90
30371;DHT22;17164;48.590;11.410;2023-05-18T02:46:30;4.10;99.90
30371;DHT22;17164;48.590;11.410;2023-05-18T02:48:55;4.10;99.90
30371;DHT22;17164;48.590;11.410;2023-05-18T02:51:21;4.10;99.90
30371;DHT22;17164;48.590;11.410;2023-05-18T02:53:48;4.10;99.90
30371;DHT22;17164;48.590;11.410;2023-05-18T02:56:13;4.00;99.90
30371;DHT22;17164;48.590;11.410;2023-05-18T02:58:39;4.00;99.90
30371;DHT22;17164;48.590;11.410;2023-05-18T03:01:08;4.00;99.90
30371;DHT22;17164;48.590;11.410;2023-05-18T03:03:34;4.00;99.90
30371;DHT22;17164;48.590;11.410;2023-05-18T03:06:06;3.90;99.90
30371;DHT22;17164;48.590;11.410;2023-05-18T03:08:32;3.90;99.90
30371;DHT22;17164;48.590;11.410;2023-05-18T03:10:58;3.90;99.90
30371;DHT22;17164;48.590;11.410;2023-05-18T03:13:23;3.90;99.90
30371;DHT22;17164;48.590;11.410;2023-05-18T03:15:49;3.90;99.90
30371;DHT22;17164;48.590;11.410;2023-05-18T03:18:16;3.90;99.90
30371;DHT22;17164;48.590;11.410;2023-05-18T03:20:43;3.90;99.90
30371;DHT22;17164;48.590;11.410;2023-05-18T03:23:09;3.90;99.90
30371;DHT22;17164;48.590;11.410;2023-05-18T03:25:35;3.80;99.90
30371;DHT22;17164;48.590;11.410;2023-05-18T03:28:02;3.90;99.90
30371;DHT22;17164;48.590;11.410;2023-05-18T03:30:32;3.90;99.90
30371;DHT22;17164;48.590;11.410;2023-05-18T03:32:59;3.90;99.90
30371;DHT22;17164;48.590;11.410;2023-05-18T03:35:26;4.00;99.90
30371;DHT22;17164;48.590;11.410;2023-05-18T03:37:51;4.00;99.90
30371;DHT22;17164;48.590;11.410;2023-05-18T03:40:18;4.10;99.90
30371;DHT22;17164;48.590;11.410;2023-05-18T03:42:44;4.20;99.90
30371;DHT22;17164;48.590;11.410;2023-05-18T03:45:10;4.20;99.90
30371;DHT22;17164;48.590;11.410;2023-05-18T03:47:37;4.20;99.90
30371;DHT22;17164;48.590;11.410;2023-05-18T03:50:03;4.20;99.90
30371;DHT22;17164;48.590;11.410;2023-05-18T03:52:30;4.20;99.90
30371;DHT22;17164;48.590;11.410;2023-05-18T03:54:59;4.20;99.90
30371;DHT22;17164;48.590;11.410;2023-05-18T03:57:25;4.10;99.90
30371;DHT22;17164;48.590;11.410;2023-05-18T03:59:51;4.10;99.90
30371;DHT22;17164;48.590;11.410;2023-05-18T04:02:17;4.10;99.90
30371;DHT22;17164;48.590;11.410;2023-05-18T04:04:42;4.10;99.90
30371;DHT22;17164;48.590;11.410;2023-05-18T04:07:11;4.10;99.90
30371;DHT22;17164;48.590;11.410;2023-05-18T04:09:37;4.00;99.90
30371;DHT22;17164;48.590;11.410;2023-05-18T04:12:03;4.00;99.90
30371;DHT22;17164;48.590;11.410;2023-05-18T04:14:29;4.00;99.90
30371;DHT22;17164;48.590;11.410;2023-05-18T04:16:57;4.10;99.90
30371;DHT22;17164;48.590;11.410;2023-05-18T04:19:31;4.10;99.90
30371;DHT22;17164;48.590;11.410;2023-05-18T04:21:57;4.10;99.90
30371;DHT22;17164;48.590;11.410;2023-05-18T04:24:23;4.10;99.90
30371;DHT22;17164;48.590;11.410;2023-05-18T04:26:50;4.10;99.90
30371;DHT22;17164;48.590;11.410;2023-05-18T04:29:16;4.20;99.90
30371;DHT22;17164;48.590;11.410;2023-05-18T04:31:42;4.20;99.90
30371;DHT22;17164;48.590;11.410;2023-05-18T04:34:10;4.20;99.90
30371;DHT22;17164;48.590;11.410;2023-05-18T04:36:38;4.30;99.90
30371;DHT22;17164;48.590;11.410;2023-05-18T04:39:05;4.30;99.90
30371;DHT22;17164;48.590;11.410;2023-05-18T04:41:32;4.40;99.90
30371;DHT22;17164;48.590;11.410;2023-05-18T04:43:58;4.50;99.90
30371;DHT22;17164;48.590;11.410;2023-05-18T04:46:25;4.50;99.90
30371;DHT22;17164;48.590;11.410;2023-05-18T04:48:51;4.60;99.90
30371;DHT22;17164;48.590;11.410;2023-05-18T04:51:18;4.70;99.90
30371;DHT22;17164;48.590;11.410;2023-05-18T04:53:49;4.70;99.90
30371;DHT22;17164;48.590;11.410;2023-05-18T04:56:16;4.80;99.90
30371;DHT22;17164;48.590;11.410;2023-05-18T04:58:42;4.90;99.90
30371;DHT22;17164;48.590;11.410;2023-05-18T05:01:10;5.00;99.90
30371;DHT22;17164;48.590;11.410;2023-05-18T05:03:37;5.20;99.90
30371;DHT22;17164;48.590;11.410;2023-05-18T05:06:02;5.30;99.90
30371;DHT22;17164;48.590;11.410;2023-05-18T05:08:28;5.40;99.90
30371;DHT22;17164;48.590;11.410;2023-05-18T05:10:54;5.50;99.90
30371;DHT22;17164;48.590;11.410;2023-05-18T05:13:19;5.60;99.90
30371;DHT22;17164;48.590;11.410;2023-05-18T05:15:45;5.60;99.90
30371;DHT22;17164;48.590;11.410;2023-05-18T05:18:10;5.80;99.90
30371;DHT22;17164;48.590;11.410;2023-05-18T05:20:36;5.90;99.90
30371;DHT22;17164;48.590;11.410;2023-05-18T05:23:02;6.00;99.90
30371;DHT22;17164;48.590;11.410;2023-05-18T05:25:27;6.10;99.90
30371;DHT22;17164;48.590;11.410;2023-05-18T05:27:53;6.20;99.90
30371;DHT22;17164;48.590;11.410;2023-05-18T05:30:18;6.30;99.90
30371;DHT22;17164;48.590;11.410;2023-05-18T05:32:44;6.40;99.90
30371;DHT22;17164;48.590;11.410;2023-05-18T05:35:09;6.50;99.90
30371;DHT22;17164;48.590;11.410;2023-05-18T05:37:35;6.60;99.90
30371;DHT22;17164;48.590;11.410;2023-05-18T05:40:01;6.60;99.90
30371;DHT22;17164;48.590;11.410;2023-05-18T05:42:27;6.70;99.90
30371;DHT22;17164;48.590;11.410;2023-05-18T05:44:54;6.80;99.90
30371;DHT22;17164;48.590;11.410;2023-05-18T05:47:19;6.90;99.90
30371;DHT22;17164;48.590;11.410;2023-05-18T05:49:45;7.00;99.90
30371;DHT22;17164;48.590;11.410;2023-05-18T05:52:11;7.10;99.90
30371;DHT22;17164;48.590;11.410;2023-05-18T05:54:37;7.20;99.90
30371;DHT22;17164;48.590;11.410;2023-05-18T05:57:02;7.30;99.90
30371;DHT22;17164;48.590;11.410;2023-05-18T05:59:28;7.40;99.90
30371;DHT22;17164;48.590;11.410;2023-05-18T06:01:53;7.60;99.90
30371;DHT22;17164;48.590;11.410;2023-05-18T06:04:19;7.70;99.90
30371;DHT22;17164;48.590;11.410;2023-05-18T06:06:46;7.80;99.90
30371;DHT22;17164;48.590;11.410;2023-05-18T06:09:12;7.90;99.90
30371;DHT22;17164;48.590;11.410;2023-05-18T06:11:38;8.00;99.90
30371;DHT22;17164;48.590;11.410;2023-05-18T06:14:04;8.20;99.90
30371;DHT22;17164;48.590;11.410;2023-05-18T06:16:29;8.30;99.90
30371;DHT22;17164;48.590;11.410;2023-05-18T06:18:55;8.40;99.90
30371;DHT22;17164;48.590;11.410;2023-05-18T06:21:21;8.50;99.90
30371;DHT22;17164;48.590;11.410;2023-05-18T06:23:46;8.70;99.90
30371;DHT22;17164;48.590;11.410;2023-05-18T06:26:12;8.80;99.90
30371;DHT22;17164;48.590;11.410;2023-05-18T06:28:38;8.90;99.90
30371;DHT22;17164;48.590;11.410;2023-05-18T06:31:04;9.00;99.90
30371;DHT22;17164;48.590;11.410;2023-05-18T06:33:30;9.10;99.90
30371;DHT22;17164;48.590;11.410;2023-05-18T06:35:55;9.20;99.90
30371;DHT22;17164;48.590;11.410;2023-05-18T06:38:21;9.30;99.90
30371;DHT22;17164;48.590;11.410;2023-05-18T06:40:47;9.40;99.90
30371;DHT22;17164;48.590;11.410;2023-05-18T06:43:12;9.60;99.90
30371;DHT22;17164;48.590;11.410;2023-05-18T06:45:38;9.70;99.90
30371;DHT22;17164;48.590;11.410;2023-05-18T06:48:05;9.80;99.90
30371;DHT22;17164;48.590;11.410;2023-05-18T06:50:30;10.00;99.90
30371;DHT22;17164;48.590;11.410;2023-05-18T06:52:56;10.10;99.90
30371;DHT22;17164;48.590;11.410;2023-05-18T06:55:21;10.20;99.90
30371;DHT22;17164;48.590;11.410;2023-05-18T06:57:47;10.30;99.90
30371;DHT22;17164;48.590;11.410;2023-05-18T07:00:13;10.40;99.90
30371;DHT22;17164;48.590;11.410;2023-05-18T07:02:39;10.60;99.90
30371;DHT22;17164;48.590;11.410;2023-05-18T07:05:05;10.70;99.90
30371;DHT22;17164;48.590;11.410;2023-05-18T07:07:34;10.90;99.90
30371;DHT22;17164;48.590;11.410;2023-05-18T07:10:01;11.10;99.90
30371;DHT22;17164;48.590;11.410;2023-05-18T07:12:27;11.20;99.90
30371;DHT22;17164;48.590;11.410;2023-05-18T07:14:53;11.30;99.90
30371;DHT22;17164;48.590;11.410;2023-05-18T07:17:19;11.40;99.90
30371;DHT22;17164;48.590;11.410;2023-05-18T07:19:44;11.50;99.90
30371;DHT22;17164;48.590;11.410;2023-05-18T07:22:10;11.60;99.90
30371;DHT22;17164;48.590;11.410;2023-05-18T07:24:35;11.80;99.90
30371;DHT22;17164;48.590;11.410;2023-05-18T07:27:01;11.90;99.90
30371;DHT22;17164;48.590;11.410;2023-05-18T07:29:28;12.00;99.90
30371;DHT22;17164;48.590;11.410;2023-05-18T07:31:53;12.10;99.90
30371;DHT22;17164;48.590;11.410;2023-05-18T07:34:19;12.30;99.90
30371;DHT22;17164;48.590;11.410;2023-05-18T07:36:44;12.40;99.90
30371;DHT22;17164;48.590;11.410;2023-05-18T07:39:10;12.50;99.90
30371;DHT22;17164;48.590;11.410;2023-05-18T07:41:43;12.60;99.90
30371;DHT22;17164;48.590;11.410;2023-05-18T07:44:09;12.80;99.90
30371;DHT22;17164;48.590;11.410;2023-05-18T07:46:35;12.90;99.90
30371;DHT22;17164;48.590;11.410;2023-05-18T07:49:00;13.00;99.90
30371;DHT22;17164;48.590;11.410;2023-05-18T07:51:26;13.10;99.90
30371;DHT22;17164;48.590;11.410;2023-05-18T07:53:52;13.20;99.90
30371;DHT22;17164;48.590;11.410;2023-05-18T07:56:17;13.30;99.90
30371;DHT22;17164;48.590;11.410;2023-05-18T07:58:43;13.50;99.90
30371;DHT22;17164;48.590;11.410;2023-05-18T08:01:09;13.60;99.90
30371;DHT22;17164;48.590;11.410;2023-05-18T08:03:34;13.80;99.90
30371;DHT22;17164;48.590;11.410;2023-05-18T08:06:00;13.80;99.90
30371;DHT22;17164;48.590;11.410;2023-05-18T08:08:26;14.00;99.90
30371;DHT22;17164;48.590;11.410;2023-05-18T08:10:51;14.10;99.90
30371;DHT22;17164;48.590;11.410;2023-05-18T08:13:17;14.30;99.90
30371;DHT22;17164;48.590;11.410;2023-05-18T08:15:43;14.40;99.90
30371;DHT22;17164;48.590;11.410;2023-05-18T08:18:09;14.50;99.90
30371;DHT22;17164;48.590;11.410;2023-05-18T08:20:34;14.60;99.90
30371;DHT22;17164;48.590;11.410;2023-05-18T08:23:00;14.60;99.20
30371;DHT22;17164;48.590;11.410;2023-05-18T08:25:25;14.80;99.30
30371;DHT22;17164;48.590;11.410;2023-05-18T08:27:52;14.80;98.20
30371;DHT22;17164;48.590;11.410;2023-05-18T08:30:17;15.00;98.10
30371;DHT22;17164;48.590;11.410;2023-05-18T08:32:46;15.10;97.30
30371;DHT22;17164;48.590;11.410;2023-05-18T08:35:12;15.20;97.50
30371;DHT22;17164;48.590;11.410;2023-05-18T08:37:38;15.30;96.70
30371;DHT22;17164;48.590;11.410;2023-05-18T08:40:05;15.40;95.10
30371;DHT22;17164;48.590;11.410;2023-05-18T08:45:35;15.70;95.30
30371;DHT22;17164;48.590;11.410;2023-05-18T08:48:02;15.80;94.40
30371;DHT22;17164;48.590;11.410;2023-05-18T08:50:30;15.80;96.90
30371;DHT22;17164;48.590;11.410;2023-05-18T08:53:00;15.90;96.40
30371;DHT22;17164;48.590;11.410;2023-05-18T08:55:27;15.90;95.20
30371;DHT22;17164;48.590;11.410;2023-05-18T08:57:56;15.90;95.40
30371;DHT22;17164;48.590;11.410;2023-05-18T09:00:22;15.80;95.60
30371;DHT22;17164;48.590;11.410;2023-05-18T09:02:51;15.80;95.90
30371;DHT22;17164;48.590;11.410;2023-05-18T09:05:17;15.90;98.00
30371;DHT22;17164;48.590;11.410;2023-05-18T09:07:43;16.00;96.20
30371;DHT22;17164;48.590;11.410;2023-05-18T09:10:10;16.10;93.70
30371;DHT22;17164;48.590;11.410;2023-05-18T09:12:38;16.20;94.00
30371;DHT22;17164;48.590;11.410;2023-05-18T09:15:04;16.40;93.70
30371;DHT22;17164;48.590;11.410;2023-05-18T09:17:30;16.50;94.70
30371;DHT22;17164;48.590;11.410;2023-05-18T09:19:56;16.70;91.80
30371;DHT22;17164;48.590;11.410;2023-05-18T09:22:21;16.80;92.20
30371;DHT22;17164;48.590;11.410;2023-05-18T09:24:48;17.00;90.80
30371;DHT22;17164;48.590;11.410;2023-05-18T09:27:13;17.10;88.50
30371;DHT22;17164;48.590;11.410;2023-05-18T09:29:56;17.30;87.60
30371;DHT22;17164;48.590;11.410;2023-05-18T09:32:22;17.40;88.80
30371;DHT22;17164;48.590;11.410;2023-05-18T09:34:49;17.60;86.40
30371;DHT22;17164;48.590;11.410;2023-05-18T09:37:18;17.70;84.10
30371;DHT22;17164;48.590;11.410;2023-05-18T09:39:56;17.80;88.90
30371;DHT22;17164;48.590;11.410;2023-05-18T09:42:26;17.90;86.70
30371;DHT22;17164;48.590;11.410;2023-05-18T09:44:53;17.80;85.60
30371;DHT22;17164;48.590;11.410;2023-05-18T09:47:18;17.70;84.90
30371;DHT22;17164;48.590;11.410;2023-05-18T09:49:45;17.40;85.00
30371;DHT22;17164;48.590;11.410;2023-05-18T09:52:10;17.20;85.60
30371;DHT22;17164;48.590;11.410;2023-05-18T09:54:36;16.90;84.40
30371;DHT22;17164;48.590;11.410;2023-05-18T09:57:02;16.70;87.70
30371;DHT22;17164;48.590;11.410;2023-05-18T09:59:29;16.60;89.30
30371;DHT22;17164;48.590;11.410;2023-05-18T10:02:00;16.80;87.90
30371;DHT22;17164;48.590;11.410;2023-05-18T10:04:41;17.00;85.80
30371;DHT22;17164;48.590;11.410;2023-05-18T10:07:11;17.40;87.40
30371;DHT22;17164;48.590;11.410;2023-05-18T10:09:38;17.70;80.90
30371;DHT22;17164;48.590;11.410;2023-05-18T10:12:18;18.00;83.00
30371;DHT22;17164;48.590;11.410;2023-05-18T10:14:45;18.30;82.80
30371;DHT22;17164;48.590;11.410;2023-05-18T10:17:12;18.60;81.60
30371;DHT22;17164;48.590;11.410;2023-05-18T10:19:39;18.90;76.90
30371;DHT22;17164;48.590;11.410;2023-05-18T10:22:07;19.10;78.20
30371;DHT22;17164;48.590;11.410;2023-05-18T10:24:37;19.30;74.90
30371;DHT22;17164;48.590;11.410;2023-05-18T10:27:07;19.30;75.70
30371;DHT22;17164;48.590;11.410;2023-05-18T10:29:34;19.10;72.00
30371;DHT22;17164;48.590;11.410;2023-05-18T10:32:02;18.70;73.40
30371;DHT22;17164;48.590;11.410;2023-05-18T10:34:29;18.20;75.60
30371;DHT22;17164;48.590;11.410;2023-05-18T10:36:55;17.90;75.00
30371;DHT22;17164;48.590;11.410;2023-05-18T10:39:23;17.70;76.50
30371;DHT22;17164;48.590;11.410;2023-05-18T10:41:50;17.50;76.60
30371;DHT22;17164;48.590;11.410;2023-05-18T10:44:18;17.40;77.80
30371;DHT22;17164;48.590;11.410;2023-05-18T10:46:45;17.10;78.10
30371;DHT22;17164;48.590;11.410;2023-05-18T10:49:11;17.00;81.90
30371;DHT22;17164;48.590;11.410;2023-05-18T10:51:40;17.30;82.70
30371;DHT22;17164;48.590;11.410;2023-05-18T10:54:11;17.50;79.80
30371;DHT22;17164;48.590;11.410;2023-05-18T10:56:45;17.50;77.20
30371;DHT22;17164;48.590;11.410;2023-05-18T10:59:12;17.50;78.20
30371;DHT22;17164;48.590;11.410;2023-05-18T11:01:39;17.40;78.00
30371;DHT22;17164;48.590;11.410;2023-05-18T11:04:06;17.40;76.80
30371;DHT22;17164;48.590;11.410;2023-05-18T11:06:32;17.30;78.70
30371;DHT22;17164;48.590;11.410;2023-05-18T11:08:59;17.20;78.20
30371;DHT22;17164;48.590;11.410;2023-05-18T11:11:26;17.10;80.40
30371;DHT22;17164;48.590;11.410;2023-05-18T11:13:59;17.10;79.10
30371;DHT22;17164;48.590;11.410;2023-05-18T11:16:35;17.10;79.60
30371;DHT22;17164;48.590;11.410;2023-05-18T11:19:08;17.10;78.40
30371;DHT22;17164;48.590;11.410;2023-05-18T11:24:19;17.10;80.60
30371;DHT22;17164;48.590;11.410;2023-05-18T11:27:07;17.20;83.50
30371;DHT22;17164;48.590;11.410;2023-05-18T11:29:43;17.40;79.00
30371;DHT22;17164;48.590;11.410;2023-05-18T11:32:28;17.70;76.30
30371;DHT22;17164;48.590;11.410;2023-05-18T11:34:57;17.90;81.50
30371;DHT22;17164;48.590;11.410;2023-05-18T11:43:08;17.90;77.40
30371;DHT22;17164;48.590;11.410;2023-05-18T11:45:33;17.90;75.00
30371;DHT22;17164;48.590;11.410;2023-05-18T11:48:01;18.00;75.00
30371;DHT22;17164;48.590;11.410;2023-05-18T11:50:29;18.10;75.20
30371;DHT22;17164;48.590;11.410;2023-05-18T11:52:56;18.30;77.40
30371;DHT22;17164;48.590;11.410;2023-05-18T11:55:36;18.30;75.30
30371;DHT22;17164;48.590;11.410;2023-05-18T11:58:03;18.40;77.00
30371;DHT22;17164;48.590;11.410;2023-05-18T12:00:29;18.50;74.00
30371;DHT22;17164;48.590;11.410;2023-05-18T12:02:55;18.40;73.90
30371;DHT22;17164;48.590;11.410;2023-05-18T12:05:21;18.30;73.90
30371;DHT22;17164;48.590;11.410;2023-05-18T12:07:51;18.10;76.00
30371;DHT22;17164;48.590;11.410;2023-05-18T12:10:20;17.90;77.30
30371;DHT22;17164;48.590;11.410;2023-05-18T12:12:48;17.70;74.20
30371;DHT22;17164;48.590;11.410;2023-05-18T12:15:15;17.60;77.40
30371;DHT22;17164;48.590;11.410;2023-05-18T12:17:49;17.50;76.60
30371;DHT22;17164;48.590;11.410;2023-05-18T12:20:20;17.40;74.40
30371;DHT22;17164;48.590;11.410;2023-05-18T12:22:48;17.30;72.70
30371;DHT22;17164;48.590;11.410;2023-05-18T12:25:22;17.20;75.60
30371;DHT22;17164;48.590;11.410;2023-05-18T12:27:50;17.10;77.60
30371;DHT22;17164;48.590;11.410;2023-05-18T12:30:24;17.00;77.90
30371;DHT22;17164;48.590;11.410;2023-05-18T12:32:55;16.90;78.50
30371;DHT22;17164;48.590;11.410;2023-05-18T12:35:25;16.70;79.50
30371;DHT22;17164;48.590;11.410;2023-05-18T12:37:52;16.80;82.60
30371;DHT22;17164;48.590;11.410;2023-05-18T12:40:21;17.00;82.70
30371;DHT22;17164;48.590;11.410;2023-05-18T12:42:51;17.40;80.10
30371;DHT22;17164;48.590;11.410;2023-05-18T12:45:17;17.80;74.20
30371;DHT22;17164;48.590;11.410;2023-05-18T12:47:43;18.00;74.40
30371;DHT22;17164;48.590;11.410;2023-05-18T12:50:09;17.90;73.50
30371;DHT22;17164;48.590;11.410;2023-05-18T12:52:36;17.70;75.20
30371;DHT22;17164;48.590;11.410;2023-05-18T12:55:01;17.40;76.10
30371;DHT22;17164;48.590;11.410;2023-05-18T12:57:29;17.30;79.40
30371;DHT22;17164;48.590;11.410;2023-05-18T12:59:57;17.50;77.10
30371;DHT22;17164;48.590;11.410;2023-05-18T13:02:32;17.80;76.80
30371;DHT22;17164;48.590;11.410;2023-05-18T13:05:05;18.10;72.70
30371;DHT22;17164;48.590;11.410;2023-05-18T13:07:34;18.10;71.90
30371;DHT22;17164;48.590;11.410;2023-05-18T13:10:01;18.00;72.70
30371;DHT22;17164;48.590;11.410;2023-05-18T13:12:50;18.00;75.10
30371;DHT22;17164;48.590;11.410;2023-05-18T13:15:20;18.10;78.20
30371;DHT22;17164;48.590;11.410;2023-05-18T13:17:56;18.10;76.00
30371;DHT22;17164;48.590;11.410;2023-05-18T13:20:22;18.10;75.10
30371;DHT22;17164;48.590;11.410;2023-05-18T13:22:49;17.90;73.70
30371;DHT22;17164;48.590;11.410;2023-05-18T13:25:15;17.70;73.90
30371;DHT22;17164;48.590;11.410;2023-05-18T13:27:42;17.40;75.90
30371;DHT22;17164;48.590;11.410;2023-05-18T13:30:10;17.30;76.30
30371;DHT22;17164;48.590;11.410;2023-05-18T13:32:36;17.20;77.40
30371;DHT22;17164;48.590;11.410;2023-05-18T13:35:03;17.10;78.20
30371;DHT22;17164;48.590;11.410;2023-05-18T13:37:29;17.00;79.30
30371;DHT22;17164;48.590;11.410;2023-05-18T13:39:55;17.10;78.30
30371;DHT22;17164;48.590;11.410;2023-05-18T13:42:21;17.20;78.60
30371;DHT22;17164;48.590;11.410;2023-05-18T13:44:46;17.30;75.30
30371;DHT22;17164;48.590;11.410;2023-05-18T13:47:12;17.50;75.80
30371;DHT22;17164;48.590;11.410;2023-05-18T13:49:39;17.60;74.40
30371;DHT22;17164;48.590;11.410;2023-05-18T13:52:05;17.60;73.30
30371;DHT22;17164;48.590;11.410;2023-05-18T13:54:30;17.50;72.90
30371;DHT22;17164;48.590;11.410;2023-05-18T13:56:56;17.50;74.70
30371;DHT22;17164;48.590;11.410;2023-05-18T13:59:21;17.40;76.80
30371;DHT22;17164;48.590;11.410;2023-05-18T14:01:47;17.40;78.20
30371;DHT22;17164;48.590;11.410;2023-05-18T14:04:13;17.30;79.00
30371;DHT22;17164;48.590;11.410;2023-05-18T14:06:39;17.20;77.70
30371;DHT22;17164;48.590;11.410;2023-05-18T14:09:05;17.20;78.30
30371;DHT22;17164;48.590;11.410;2023-05-18T14:11:30;17.30;77.20
30371;DHT22;17164;48.590;11.410;2023-05-18T14:14:09;17.50;78.00
30371;DHT22;17164;48.590;11.410;2023-05-18T14:16:41;17.60;77.60
30371;DHT22;17164;48.590;11.410;2023-05-18T14:19:26;17.70;75.50
30371;DHT22;17164;48.590;11.410;2023-05-18T14:21:56;17.70;77.30
30371;DHT22;17164;48.590;11.410;2023-05-18T14:24:29;17.60;76.10
30371;DHT22;17164;48.590;11.410;2023-05-18T14:27:01;17.60;77.50
30371;DHT22;17164;48.590;11.410;2023-05-18T14:29:27;17.60;77.00
30371;DHT22;17164;48.590;11.410;2023-05-18T14:31:52;17.60;78.00
30371;DHT22;17164;48.590;11.410;2023-05-18T14:34:18;17.50;75.90
30371;DHT22;17164;48.590;11.410;2023-05-18T14:36:44;17.60;74.10
30371;DHT22;17164;48.590;11.410;2023-05-18T14:39:09;17.60;75.40
30371;DHT22;17164;48.590;11.410;2023-05-18T14:41:35;17.70;76.40
30371;DHT22;17164;48.590;11.410;2023-05-18T14:44:01;17.70;75.30
30371;DHT22;17164;48.590;11.410;2023-05-18T14:46:29;17.80;77.80
30371;DHT22;17164;48.590;11.410;2023-05-18T14:48:55;17.90;77.70
30371;DHT22;17164;48.590;11.410;2023-05-18T14:51:20;18.00;78.80
30371;DHT22;17164;48.590;11.410;2023-05-18T14:53:48;18.00;77.70
30371;DHT22;17164;48.590;11.410;2023-05-18T14:56:13;18.00;79.30
30371;DHT22;17164;48.590;11.410;2023-05-18T14:58:39;17.90;77.60
30371;DHT22;17164;48.590;11.410;2023-05-18T15:01:05;17.80;76.90
30371;DHT22;17164;48.590;11.410;2023-05-18T15:03:31;17.60;76.30
30371;DHT22;17164;48.590;11.410;2023-05-18T15:05:56;17.40;76.90
30371;DHT22;17164;48.590;11.410;2023-05-18T15:08:22;17.10;78.10
30371;DHT22;17164;48.590;11.410;2023-05-18T15:10:48;16.80;80.00
30371;DHT22;17164;48.590;11.410;2023-05-18T15:13:14;16.60;80.90
30371;DHT22;17164;48.590;11.410;2023-05-18T15:15:40;16.40;81.60
30371;DHT22;17164;48.590;11.410;2023-05-18T15:18:06;16.30;82.20
30371;DHT22;17164;48.590;11.410;2023-05-18T15:20:32;16.20;83.30
30371;DHT22;17164;48.590;11.410;2023-05-18T15:22:58;16.10;83.60
30371;DHT22;17164;48.590;11.410;2023-05-18T15:25:24;16.00;83.40
30371;DHT22;17164;48.590;11.410;2023-05-18T15:27:50;16.00;83.90
30371;DHT22;17164;48.590;11.410;2023-05-18T15:30:17;16.00;84.20
30371;DHT22;17164;48.590;11.410;2023-05-18T15:32:43;16.00;84.80
30371;DHT22;17164;48.590;11.410;2023-05-18T15:35:09;16.00;85.80
30371;DHT22;17164;48.590;11.410;2023-05-18T15:37:34;16.10;87.50
30371;DHT22;17164;48.590;11.410;2023-05-18T15:40:01;16.20;87.00
30371;DHT22;17164;48.590;11.410;2023-05-18T15:42:27;16.20;88.20